createdAt,value
2022-09-16T00:03:42.372Z,100899.16
2022-09-16T00:08:45.552Z,100901.91
2022-09-16T00:13:47.781Z,100914.09
2022-09-16T00:18:53.128Z,100911.34
2022-09-16T00:23:56.288Z,100916.47
2022-09-16T00:28:57.945Z,100922.41
2022-09-16T00:33:59.538Z,100918.56
2022-09-16T00:39:01.250Z,100912.38
2022-09-16T00:44:06.036Z,100910.69
2022-09-16T00:49:17.498Z,100906.19
2022-09-16T00:54:22.688Z,100913.03
2022-09-16T00:59:28.388Z,100911.34
2022-09-16T01:04:35.348Z,100919.84
2022-09-16T01:09:38.318Z,100923.91
2022-09-16T01:14:54.986Z,100916.22
2022-09-16T01:20:21.098Z,100914.31
2022-09-16T01:25:48.741Z,100920.91
2022-09-16T01:31:11.769Z,100945.91
2022-09-16T01:36:27.827Z,100933.97
2022-09-16T01:41:48.143Z,100930.31
2022-09-16T01:47:08.036Z,100928.53
2022-09-16T01:52:21.558Z,100937.94
2022-09-16T01:57:48.027Z,100937.06
2022-09-16T02:02:56.363Z,100948.88
2022-09-16T02:08:04.133Z,100950.81
2022-09-16T02:13:15.207Z,100944.88
2022-09-16T02:18:23.131Z,100930.31
2022-09-16T02:23:29.756Z,100912.75
2022-09-16T02:28:35.854Z,100940.28
2022-09-16T02:33:44.951Z,100925.59
2022-09-16T02:38:52.114Z,100924.78
2022-09-16T02:43:54.785Z,100922.56
2022-09-16T02:49:14.048Z,100912.25
2022-09-16T02:54:25.846Z,100917.34
2022-09-16T02:59:32.405Z,100904.13
2022-09-16T03:04:59.467Z,100904.31
2022-09-16T03:10:05.646Z,100898.09
2022-09-16T03:15:11.037Z,100914.56
2022-09-16T03:20:22.073Z,100921.22
2022-09-16T03:25:44.801Z,100918.94
2022-09-16T03:30:59.819Z,100918.75
2022-09-16T03:36:05.751Z,100908.69
2022-09-16T03:41:09.166Z,100909.28
2022-09-16T03:46:11.870Z,100905.00
2022-09-16T03:51:13.548Z,100902.00
2022-09-16T03:56:15.142Z,100902.00
2022-09-16T04:01:16.812Z,100902.69
2022-09-16T04:06:18.483Z,100919.13
2022-09-16T04:11:20.128Z,100915.38
2022-09-16T04:16:22.141Z,100905.13
2022-09-16T04:21:24.323Z,100907.41
2022-09-16T04:26:27.057Z,100896.50
2022-09-16T04:31:28.712Z,100915.34
2022-09-16T04:36:31.336Z,100917.22
2022-09-16T04:41:33.068Z,100915.41
2022-09-16T04:46:34.771Z,100920.75
2022-09-16T04:51:36.477Z,100924.22
2022-09-16T04:56:38.097Z,100907.25
2022-09-16T05:01:40.516Z,100913.47
2022-09-16T05:06:42.715Z,100936.75
2022-09-16T05:11:44.398Z,100919.00
2022-09-16T05:16:46.286Z,100916.50
2022-09-16T05:21:47.918Z,100919.91
2022-09-16T05:26:49.599Z,100921.19
2022-09-16T05:31:51.162Z,100930.38
2022-09-16T05:36:54.091Z,100930.16
2022-09-16T05:41:59.153Z,100940.22
2022-09-16T05:47:00.832Z,100953.16
2022-09-16T05:52:02.881Z,100956.91
2022-09-16T05:57:07.097Z,100950.22
2022-09-16T06:02:09.221Z,100952.16
2022-09-16T06:07:10.974Z,100949.03
2022-09-16T06:12:12.575Z,100943.22
2022-09-16T06:17:14.318Z,100941.72
2022-09-16T06:22:15.892Z,100936.66
2022-09-16T06:27:17.499Z,100941.00
2022-09-16T06:32:19.096Z,100938.94
2022-09-16T06:37:20.931Z,100935.78
2022-09-16T06:42:22.505Z,100937.72
2022-09-16T06:47:24.985Z,100929.69
2022-09-16T06:52:27.535Z,100934.88
2022-09-16T06:57:30.503Z,100934.88
2022-09-16T07:02:32.148Z,100944.66
2022-09-16T07:07:34.904Z,100960.63
2022-09-16T07:12:36.613Z,100961.09
2022-09-16T07:17:38.239Z,100944.81
2022-09-16T07:22:39.973Z,100950.09
2022-09-16T07:27:42.217Z,100956.66
2022-09-16T07:32:44.186Z,100960.28
2022-09-16T07:37:45.749Z,100959.31
2022-09-16T07:42:47.361Z,100956.31
2022-09-16T07:47:50.335Z,100963.47
2022-09-16T07:52:56.019Z,100957.03
2022-09-16T07:57:57.659Z,100960.84
2022-09-16T08:02:59.449Z,100974.78
2022-09-16T08:08:01.749Z,101002.06
2022-09-16T08:13:09.953Z,101000.72
2022-09-16T08:18:11.799Z,101010.19
2022-09-16T08:23:14.542Z,101016.63
2022-09-16T08:28:17.888Z,101011.03
2022-09-16T08:33:23.114Z,101014.59
2022-09-16T08:38:24.890Z,101011.44
2022-09-16T08:43:43.380Z,101008.66
2022-09-16T08:49:16.922Z,101003.16
2022-09-16T08:54:28.273Z,101002.50
2022-09-16T08:59:37.403Z,101005.28
2022-09-16T09:04:43.356Z,101002.00
2022-09-16T09:10:05.955Z,101007.13
2022-09-16T09:15:19.358Z,101013.78
2022-09-16T09:20:46.154Z,101017.03
2022-09-16T09:25:59.111Z,101025.38
2022-09-16T09:31:20.259Z,101031.56
2022-09-16T09:36:46.287Z,101046.31
2022-09-16T09:42:09.543Z,101051.19
2022-09-16T09:52:42.023Z,101069.97
2022-09-16T09:58:16.068Z,101069.78
2022-09-16T10:03:18.968Z,101045.84
2022-09-16T10:08:30.528Z,101040.66
2022-09-16T10:13:32.301Z,101062.19
2022-09-16T10:18:34.287Z,101051.59
2022-09-16T10:23:36.994Z,101048.38
2022-09-16T10:28:38.878Z,101037.38
2022-09-16T10:33:44.904Z,101032.00
2022-09-16T10:39:04.825Z,101033.03
2022-09-16T10:44:20.052Z,101023.47
2022-09-16T10:49:28.621Z,101027.88
2022-09-16T10:54:31.781Z,101015.59
2022-09-16T10:59:33.500Z,101009.41
2022-09-16T11:05:03.138Z,101016.47
2022-09-16T11:10:25.219Z,101034.66
2022-09-16T11:16:04.576Z,101026.41
2022-09-16T11:21:17.569Z,101029.84
2022-09-16T11:26:31.077Z,101023.38
2022-09-16T11:32:08.338Z,101012.66
2022-09-16T11:37:10.034Z,101025.38
2022-09-16T11:42:30.605Z,101016.09
2022-09-16T11:47:41.380Z,101031.06
2022-09-16T11:53:10.300Z,101032.16
2022-09-16T11:58:28.799Z,101030.88
2022-09-16T12:03:48.617Z,101037.66
2022-09-16T12:09:04.536Z,101032.50
2022-09-16T12:14:24.147Z,101043.38
2022-09-16T12:19:58.306Z,101043.09
2022-09-16T12:25:11.363Z,101046.44
2022-09-16T12:30:27.581Z,101039.00
2022-09-16T12:36:07.897Z,101043.44
2022-09-16T12:41:31.134Z,101035.91
2022-09-16T12:46:51.581Z,101042.53
2022-09-16T12:52:31.442Z,101041.34
2022-09-16T12:57:45.786Z,101036.84
2022-09-16T13:02:47.468Z,101044.38
2022-09-16T13:07:53.563Z,101055.44
2022-09-16T13:13:00.148Z,101041.19
2022-09-16T13:18:27.005Z,101028.66
2022-09-16T13:23:34.808Z,101053.91
2022-09-16T13:28:39.626Z,101043.69
2022-09-16T13:34:03.946Z,101048.63
2022-09-16T13:39:11.541Z,101036.94
2022-09-16T13:44:41.285Z,101043.06
2022-09-16T13:49:53.476Z,101041.19
2022-09-16T13:55:12.788Z,101035.00
2022-09-16T14:00:24.064Z,101035.06
2022-09-16T14:05:56.086Z,101033.06
2022-09-16T14:11:25.879Z,101044.69
2022-09-16T14:16:29.605Z,101038.38
2022-09-16T14:21:31.740Z,101045.53
2022-09-16T14:26:34.900Z,101031.97
2022-09-16T14:31:39.583Z,101031.66
2022-09-16T14:36:43.307Z,101040.53
2022-09-16T14:41:49.859Z,101031.88
2022-09-16T14:47:07.549Z,101028.84
2022-09-16T14:52:25.852Z,101040.81
2022-09-16T14:57:30.217Z,101044.41
2022-09-16T15:02:40.035Z,101030.00
2022-09-16T15:08:02.516Z,101042.31
2022-09-16T15:13:10.150Z,101033.88
2022-09-16T15:18:29.205Z,101044.22
2022-09-16T15:23:32.752Z,101039.78
2022-09-16T15:28:34.407Z,101036.91
2022-09-16T15:33:41.109Z,101033.25
2022-09-16T15:38:44.783Z,101033.34
2022-09-16T15:43:47.163Z,101042.91
2022-09-16T15:48:58.863Z,101037.59
2022-09-16T15:54:15.163Z,101020.91
2022-09-16T15:59:34.117Z,101024.13
2022-09-16T16:04:35.824Z,101020.53
2022-09-16T16:09:43.082Z,101037.72
2022-09-16T16:14:46.780Z,101045.16
2022-09-16T16:19:50.400Z,101028.00
2022-09-16T16:24:52.210Z,101028.28
2022-09-16T16:29:53.840Z,101037.53
2022-09-16T16:34:58.133Z,101043.84
2022-09-16T16:40:01.826Z,101033.97
2022-09-16T16:45:03.905Z,101028.53
2022-09-16T16:50:06.115Z,101033.53
2022-09-16T16:55:08.230Z,101035.16
2022-09-16T17:00:10.681Z,101047.50
2022-09-16T17:05:12.413Z,101024.81
2022-09-16T17:10:14.217Z,101040.75
2022-09-16T17:15:18.247Z,101043.56
2022-09-16T17:20:20.070Z,101061.69
2022-09-16T17:25:21.809Z,101062.28
2022-09-16T17:30:23.407Z,101071.41
2022-09-16T17:35:25.294Z,101079.41
2022-09-16T17:40:26.958Z,101068.09
2022-09-16T17:45:28.657Z,101069.75
2022-09-16T17:50:30.250Z,101070.81
2022-09-16T17:55:32.013Z,101072.25
2022-09-16T18:00:33.619Z,101069.69
2022-09-16T18:05:37.110Z,101072.94
2022-09-16T18:10:42.044Z,101068.06
2022-09-16T18:15:43.764Z,101080.38
2022-09-16T18:20:50.471Z,101084.13
2022-09-16T18:25:56.320Z,101083.44
2022-09-16T18:31:08.101Z,101077.06
2022-09-16T18:36:16.113Z,101084.53
2022-09-16T18:41:21.633Z,101086.66
2022-09-16T18:46:32.236Z,101070.53
2022-09-16T18:51:41.829Z,101102.06
2022-09-16T18:56:45.112Z,101116.47
2022-09-16T19:01:50.859Z,101111.91
2022-09-16T19:06:55.996Z,101119.59
2022-09-16T19:11:57.903Z,101117.66
2022-09-16T19:17:05.220Z,101118.34
2022-09-16T19:22:11.947Z,101131.28
2022-09-16T19:27:13.702Z,101123.97
2022-09-16T19:32:20.461Z,101118.16
2022-09-16T19:37:24.906Z,101121.09
2022-09-16T19:42:30.651Z,101137.56
2022-09-16T19:47:34.541Z,101126.38
2022-09-16T19:52:40.669Z,101129.97
2022-09-16T19:57:42.391Z,101127.44
2022-09-16T20:02:45.910Z,101132.19
2022-09-16T20:07:47.630Z,101120.69
2022-09-16T20:12:49.285Z,101137.31
2022-09-16T20:17:50.888Z,101151.13
2022-09-16T20:22:52.514Z,101154.16
2022-09-16T20:27:54.250Z,101156.00
2022-09-16T20:32:56.303Z,101148.16
2022-09-16T20:37:58.347Z,101156.50
2022-09-16T20:43:00.310Z,101185.66
2022-09-16T20:48:02.131Z,101211.75
2022-09-16T20:53:03.725Z,101195.75
2022-09-16T20:58:05.318Z,101183.34
2022-09-16T21:03:07.016Z,101179.75
2022-09-16T21:08:08.675Z,101176.94
2022-09-16T21:13:10.298Z,101196.19
2022-09-16T21:18:11.937Z,101191.25
2022-09-16T21:23:14.353Z,101218.84
2022-09-16T21:28:15.964Z,101217.38
2022-09-16T21:33:17.821Z,101200.91
2022-09-16T21:38:23.807Z,101200.50
2022-09-16T21:43:31.046Z,101201.13
2022-09-16T21:48:33.157Z,101200.41
2022-09-16T21:53:38.303Z,101214.19
2022-09-16T21:58:49.937Z,101214.53
2022-09-16T22:04:02.772Z,101206.78
2022-09-16T22:09:07.906Z,101212.63
2022-09-16T22:14:11.276Z,101207.41
2022-09-16T22:19:16.478Z,101193.00
2022-09-16T22:24:22.537Z,101198.78
2022-09-16T22:29:24.242Z,101194.91
2022-09-16T22:34:25.946Z,101209.16
2022-09-16T22:39:27.732Z,101218.38
2022-09-16T22:44:29.344Z,101221.75
2022-09-16T22:49:31.009Z,101223.69
2022-09-16T22:54:32.753Z,101224.59
2022-09-16T22:59:34.471Z,101233.94
2022-09-16T23:04:36.360Z,101218.94
2022-09-16T23:09:38.009Z,101217.97
2022-09-16T23:14:39.594Z,101214.94
2022-09-16T23:19:41.309Z,101227.47
2022-09-16T23:24:42.906Z,101226.53
2022-09-16T23:29:44.552Z,101219.22
2022-09-16T23:34:46.141Z,101249.59
2022-09-16T23:39:48.115Z,101240.91
2022-09-16T23:44:49.739Z,101233.28
2022-09-16T23:50:01.465Z,101235.03
2022-09-16T23:55:08.512Z,101248.53
